createdAt,value
2023-09-08T00:02:30.154Z,1013.26
2023-09-08T00:05:39.062Z,1013.23
2023-09-08T00:08:46.374Z,1013.17
2023-09-08T00:11:53.493Z,1013.15
2023-09-08T00:15:02.735Z,1013.19
2023-09-08T00:18:10.739Z,1013.09
2023-09-08T00:21:18.812Z,1013.18
2023-09-08T00:24:28.145Z,1013.19
2023-09-08T00:27:36.460Z,1013.15
2023-09-08T00:30:44.682Z,1013.22
2023-09-08T00:33:52.234Z,1013.17
2023-09-08T00:37:01.059Z,1013.17
2023-09-08T00:40:08.440Z,1013.08
2023-09-08T00:43:15.926Z,1013.16
2023-09-08T00:46:24.629Z,1013.05
2023-09-08T00:49:32.127Z,1013.10
2023-09-08T00:52:39.466Z,1013.10
2023-09-08T00:55:40.537Z,1013.05
2023-09-08T00:58:47.669Z,1012.97
2023-09-08T01:01:55.034Z,1013.04
2023-09-08T01:05:04.247Z,1012.92
2023-09-08T01:08:11.756Z,1012.96
2023-09-08T01:11:20.843Z,1013.00
2023-09-08T01:14:27.946Z,1012.99
2023-09-08T01:17:37.037Z,1012.94
2023-09-08T01:20:44.470Z,1013.03
2023-09-08T01:23:52.540Z,1013.00
2023-09-08T01:27:02.614Z,1013.00
2023-09-08T01:30:09.463Z,1012.99
2023-09-08T01:33:17.580Z,1012.94
2023-09-08T01:39:22.807Z,1012.95
2023-09-08T01:42:31.821Z,1012.96
2023-09-08T01:45:41.320Z,1012.85
2023-09-08T01:48:48.331Z,1012.94
2023-09-08T01:51:56.163Z,1012.82
2023-09-08T01:55:04.001Z,1012.83
2023-09-08T01:58:13.342Z,1012.76
2023-09-08T02:01:20.887Z,1012.75
2023-09-08T02:04:28.398Z,1012.64
2023-09-08T02:07:37.126Z,1012.66
2023-09-08T02:10:45.738Z,1012.69
2023-09-08T02:13:53.886Z,1012.69
2023-09-08T02:17:03.271Z,1012.67
2023-09-08T02:20:11.258Z,1012.72
2023-09-08T02:23:17.871Z,1012.63
2023-09-08T02:26:26.764Z,1012.61
2023-09-08T02:29:33.927Z,1012.59
2023-09-08T02:32:41.176Z,1012.61
2023-09-08T02:35:50.066Z,1012.61
2023-09-08T02:38:57.137Z,1012.61
2023-09-08T02:42:04.975Z,1012.57
2023-09-08T02:45:12.163Z,1012.54
2023-09-08T02:48:21.030Z,1012.52
2023-09-08T02:51:28.027Z,1012.52
2023-09-08T02:54:36.295Z,1012.46
2023-09-08T02:57:45.482Z,1012.49
2023-09-08T03:00:52.675Z,1012.41
2023-09-08T03:04:00.105Z,1012.41
2023-09-08T03:07:09.243Z,1012.33
2023-09-08T03:10:16.699Z,1012.38
2023-09-08T03:13:24.550Z,1012.43
2023-09-08T03:16:33.468Z,1012.38
2023-09-08T03:19:40.752Z,1012.36
2023-09-08T03:22:48.084Z,1012.36
2023-09-08T03:25:56.171Z,1012.35
2023-09-08T03:29:05.491Z,1012.31
2023-09-08T03:32:12.692Z,1012.29
2023-09-08T03:35:20.220Z,1012.32
2023-09-08T03:38:29.140Z,1012.28
2023-09-08T03:41:36.551Z,1012.31
2023-09-08T03:44:43.956Z,1012.42
2023-09-08T03:47:52.857Z,1012.36
2023-09-08T03:51:00.197Z,1012.40
2023-09-08T03:54:08.693Z,1012.35
2023-09-08T03:57:17.411Z,1012.44
2023-09-08T04:00:24.791Z,1012.44
2023-09-08T04:03:32.894Z,1012.41
2023-09-08T04:06:41.604Z,1012.36
2023-09-08T04:09:50.853Z,1012.32
2023-09-08T04:12:57.796Z,1012.25
2023-09-08T04:16:05.186Z,1012.33
2023-09-08T04:19:13.549Z,1012.32
2023-09-08T04:22:21.038Z,1012.34
2023-09-08T04:25:28.586Z,1012.36
2023-09-08T04:28:37.997Z,1012.31
2023-09-08T04:31:45.458Z,1012.33
2023-09-08T04:34:52.498Z,1012.30
2023-09-08T04:38:03.557Z,1012.27
2023-09-08T04:41:02.646Z,1012.29
2023-09-08T04:44:10.243Z,1012.27
2023-09-08T04:46:30.839Z,1012.25
2023-09-08T04:49:39.530Z,1012.28
2023-09-08T04:52:46.798Z,1012.27
2023-09-08T04:55:54.431Z,1012.28
2023-09-08T04:59:02.969Z,1012.35
2023-09-08T05:02:09.744Z,1012.28
2023-09-08T05:05:16.584Z,1012.33
2023-09-08T05:08:25.915Z,1012.38
2023-09-08T05:11:32.792Z,1012.41
2023-09-08T05:14:42.150Z,1012.41
2023-09-08T05:17:51.083Z,1012.48
2023-09-08T05:20:58.966Z,1012.44
2023-09-08T05:24:06.619Z,1012.43
2023-09-08T05:27:14.186Z,1012.39
2023-09-08T05:30:23.493Z,1012.32
2023-09-08T05:33:30.744Z,1012.27
2023-09-08T05:36:38.814Z,1012.33
2023-09-08T05:39:46.932Z,1012.33
2023-09-08T05:42:54.399Z,1012.29
2023-09-08T05:46:02.284Z,1012.35
2023-09-08T05:49:11.182Z,1012.36
2023-09-08T05:52:18.252Z,1012.38
2023-09-08T05:55:25.590Z,1012.30
2023-09-08T05:58:34.384Z,1012.32
2023-09-08T06:01:42.064Z,1012.35
2023-09-08T06:04:48.935Z,1012.30
2023-09-08T06:08:06.710Z,1012.30
2023-09-08T06:11:02.643Z,1012.27
2023-09-08T06:14:09.749Z,1012.28
2023-09-08T06:17:16.834Z,1012.23
2023-09-08T06:20:26.304Z,1012.21
2023-09-08T06:23:36.631Z,1012.24
2023-09-08T06:26:34.561Z,1012.23
2023-09-08T06:29:43.517Z,1012.25
2023-09-08T06:32:51.291Z,1012.31
2023-09-08T06:35:58.486Z,1012.28
2023-09-08T06:39:06.634Z,1012.33
2023-09-08T06:42:13.681Z,1012.29
2023-09-08T06:45:20.787Z,1012.29
2023-09-08T06:48:28.455Z,1012.27
2023-09-08T06:51:37.278Z,1012.28
2023-09-08T06:54:44.049Z,1012.29
2023-09-08T06:57:51.686Z,1012.33
2023-09-08T07:01:00.350Z,1012.31
2023-09-08T07:04:07.715Z,1012.35
2023-09-08T07:07:15.776Z,1012.32
2023-09-08T07:10:25.406Z,1012.34
2023-09-08T07:13:32.661Z,1012.34
2023-09-08T07:16:40.288Z,1012.33
2023-09-08T07:19:49.011Z,1012.32
2023-09-08T07:22:56.659Z,1012.37
2023-09-08T07:26:03.780Z,1012.40
2023-09-08T07:29:11.430Z,1012.33
2023-09-08T07:32:20.068Z,1012.35
2023-09-08T07:35:27.620Z,1012.32
2023-09-08T07:38:35.420Z,1012.32
2023-09-08T07:41:44.779Z,1012.35
2023-09-08T07:44:52.066Z,1012.37
2023-09-08T07:48:00.091Z,1012.31
2023-09-08T07:51:08.329Z,1012.29
2023-09-08T07:54:16.060Z,1012.34
2023-09-08T07:57:23.282Z,1012.14
2023-09-08T08:00:32.815Z,1012.09
2023-09-08T08:03:40.434Z,1012.15
2023-09-08T08:06:47.697Z,1012.11
2023-09-08T08:09:54.969Z,1012.09
2023-09-08T08:13:03.446Z,1012.05
2023-09-08T08:16:10.641Z,1012.05
2023-09-08T08:19:18.379Z,1012.04
2023-09-08T08:22:27.010Z,1012.09
2023-09-08T08:25:34.450Z,1012.08
2023-09-08T08:28:42.024Z,1012.06
2023-09-08T08:31:50.551Z,1012.03
2023-09-08T08:34:57.903Z,1012.02
2023-09-08T08:38:05.534Z,1012.00
2023-09-08T08:41:14.191Z,1012.03
2023-09-08T08:44:22.143Z,1011.97
2023-09-08T08:47:29.963Z,1011.94
2023-09-08T08:50:38.728Z,1012.01
2023-09-08T08:53:46.809Z,1011.94
2023-09-08T08:56:54.617Z,1011.89
2023-09-08T09:00:02.240Z,1011.90
2023-09-08T09:03:14.913Z,1011.87
2023-09-08T09:06:12.092Z,1011.84
2023-09-08T09:09:19.888Z,1011.80
2023-09-08T09:12:29.369Z,1011.75
2023-09-08T09:15:37.003Z,1011.82
2023-09-08T09:18:44.034Z,1011.75
2023-09-08T09:21:52.535Z,1011.72
2023-09-08T09:24:59.773Z,1011.76
2023-09-08T09:28:07.072Z,1011.70
2023-09-08T09:31:16.602Z,1011.71
2023-09-08T09:34:24.275Z,1011.73
2023-09-08T09:37:31.159Z,1011.75
2023-09-08T09:40:38.868Z,1011.68
2023-09-08T09:43:47.241Z,1011.70
2023-09-08T09:46:55.144Z,1011.68
2023-09-08T09:50:02.264Z,1011.72
2023-09-08T09:53:11.539Z,1011.69
2023-09-08T09:56:18.636Z,1011.67
2023-09-08T09:59:25.732Z,1011.61
2023-09-08T10:02:34.413Z,1011.60
2023-09-08T10:05:42.010Z,1011.54
2023-09-08T10:08:49.182Z,1011.63
2023-09-08T10:11:57.722Z,1011.57
2023-09-08T10:15:05.297Z,1011.58
2023-09-08T10:18:12.288Z,1011.59
2023-09-08T10:21:19.913Z,1011.59
2023-09-08T10:24:28.887Z,1011.51
2023-09-08T10:27:35.840Z,1011.48
2023-09-08T10:30:43.193Z,1011.49
2023-09-08T10:33:52.454Z,1011.47
2023-09-08T10:36:59.699Z,1011.42
2023-09-08T10:40:06.871Z,1011.35
2023-09-08T10:43:15.404Z,1011.40
2023-09-08T10:46:22.611Z,1011.25
2023-09-08T10:49:29.791Z,1011.35
2023-09-08T10:52:38.363Z,1011.35
2023-09-08T10:55:46.793Z,1011.31
2023-09-08T10:58:54.136Z,1011.22
2023-09-08T11:02:01.832Z,1011.23
2023-09-08T11:05:10.995Z,1011.23
2023-09-08T11:08:17.942Z,1011.25
2023-09-08T11:11:25.591Z,1011.23
2023-09-08T11:14:34.499Z,1011.22
2023-09-08T11:17:41.596Z,1011.21
2023-09-08T11:20:48.987Z,1011.23
2023-09-08T11:23:57.695Z,1011.11
2023-09-08T11:27:05.123Z,1011.11
2023-09-08T11:30:12.538Z,1011.12
2023-09-08T11:33:21.018Z,1011.14
2023-09-08T11:36:28.263Z,1011.04
2023-09-08T11:39:35.686Z,1011.09
2023-09-08T11:42:44.670Z,1011.13
2023-09-08T11:45:52.104Z,1011.14
2023-09-08T11:48:59.537Z,1011.08
2023-09-08T11:52:07.152Z,1011.03
2023-09-08T11:55:15.838Z,1011.03
2023-09-08T11:58:23.312Z,1011.01
2023-09-08T12:01:31.224Z,1011.00
2023-09-08T12:04:39.673Z,1010.91
2023-09-08T12:07:47.192Z,1010.88
2023-09-08T12:10:54.804Z,1010.86
2023-09-08T12:14:03.036Z,1010.94
2023-09-08T12:17:10.770Z,1010.83
2023-09-08T12:20:17.884Z,1010.83
2023-09-08T12:23:26.601Z,1010.80
2023-09-08T12:26:34.224Z,1010.73
2023-09-08T12:29:41.431Z,1010.66
2023-09-08T12:32:48.684Z,1010.65
2023-09-08T12:35:57.305Z,1010.65
2023-09-08T12:39:04.987Z,1010.65
2023-09-08T12:42:12.238Z,1010.57
2023-09-08T12:45:20.574Z,1010.51
2023-09-08T12:48:28.380Z,1010.50
2023-09-08T12:51:35.310Z,1010.55
2023-09-08T12:54:43.925Z,1010.57
2023-09-08T12:57:51.380Z,1010.52
2023-09-08T13:00:58.147Z,1010.40
2023-09-08T13:04:07.299Z,1010.42
2023-09-08T13:07:14.458Z,1010.50
2023-09-08T13:10:21.320Z,1010.51
2023-09-08T13:13:28.528Z,1010.44
2023-09-08T13:16:37.122Z,1010.42
2023-09-08T13:19:45.266Z,1010.34
2023-09-08T13:22:52.846Z,1010.37
2023-09-08T13:26:01.302Z,1010.33
2023-09-08T13:29:08.632Z,1010.25
2023-09-08T13:32:17.376Z,1010.24
2023-09-08T13:35:25.999Z,1010.14
2023-09-08T13:38:33.261Z,1010.13
2023-09-08T13:41:40.440Z,1010.14
2023-09-08T13:44:49.272Z,1010.08
2023-09-08T13:47:56.852Z,1010.05
2023-09-08T13:51:06.534Z,1010.09
2023-09-08T13:54:18.179Z,1010.08
2023-09-08T13:57:16.278Z,1010.02
2023-09-08T14:00:25.096Z,1010.09
2023-09-08T14:03:41.334Z,1009.98
2023-09-08T14:06:41.783Z,1009.95
2023-09-08T14:09:53.089Z,1009.96
2023-09-08T14:12:48.530Z,1009.92
2023-09-08T14:15:56.784Z,1009.88
2023-09-08T14:19:03.980Z,1009.86
2023-09-08T14:22:11.156Z,1009.87
2023-09-08T14:25:19.842Z,1009.87
2023-09-08T14:28:27.102Z,1009.83
2023-09-08T14:31:34.167Z,1009.84
2023-09-08T14:34:41.399Z,1009.84
2023-09-08T14:37:49.585Z,1009.74
2023-09-08T14:40:57.230Z,1009.78
2023-09-08T14:44:04.559Z,1009.73
2023-09-08T14:47:13.217Z,1009.69
2023-09-08T14:50:20.833Z,1009.73
2023-09-08T14:53:28.112Z,1009.80
2023-09-08T14:56:36.772Z,1009.75
2023-09-08T14:59:44.508Z,1009.79
2023-09-08T15:02:51.520Z,1009.72
2023-09-08T15:06:00.682Z,1009.74
2023-09-08T15:09:08.423Z,1009.70
2023-09-08T15:12:15.512Z,1009.65
2023-09-08T15:15:23.187Z,1009.62
2023-09-08T15:18:32.255Z,1009.65
2023-09-08T15:21:39.487Z,1009.66
2023-09-08T15:24:46.722Z,1009.61
2023-09-08T15:27:55.360Z,1009.62
2023-09-08T15:31:02.563Z,1009.61
2023-09-08T15:34:10.075Z,1009.54
2023-09-08T15:37:18.686Z,1009.57
2023-09-08T15:40:25.828Z,1009.55
2023-09-08T15:43:32.881Z,1009.58
2023-09-08T15:46:42.026Z,1009.53
2023-09-08T15:49:49.526Z,1009.47
2023-09-08T15:52:56.357Z,1009.47
2023-09-08T15:56:05.491Z,1009.50
2023-09-08T15:59:12.773Z,1009.45
2023-09-08T16:02:20.075Z,1009.46
2023-09-08T16:05:27.449Z,1009.46
2023-09-08T16:08:36.064Z,1009.51
2023-09-08T16:11:43.193Z,1009.39
2023-09-08T16:14:50.383Z,1009.41
2023-09-08T16:17:59.309Z,1009.43
2023-09-08T16:21:06.669Z,1009.45
2023-09-08T16:24:13.904Z,1009.38
2023-09-08T16:27:22.901Z,1009.36
2023-09-08T16:30:30.122Z,1009.31
2023-09-08T16:33:37.428Z,1009.33
2023-09-08T16:36:46.807Z,1009.31
2023-09-08T16:39:53.714Z,1009.34
2023-09-08T16:43:00.844Z,1009.40
2023-09-08T16:46:08.424Z,1009.43
2023-09-08T16:49:16.791Z,1009.41
2023-09-08T16:52:23.974Z,1009.43
2023-09-08T16:55:31.495Z,1009.53
2023-09-08T16:58:39.780Z,1009.46
2023-09-08T17:01:47.365Z,1009.41
2023-09-08T17:04:54.452Z,1009.42
2023-09-08T17:08:03.063Z,1009.41
2023-09-08T17:11:10.511Z,1009.44
2023-09-08T17:14:17.571Z,1009.44
2023-09-08T17:17:25.789Z,1009.46
2023-09-08T17:20:33.045Z,1009.53
2023-09-08T17:23:41.716Z,1009.56
2023-09-08T17:26:48.846Z,1009.59
2023-09-08T17:29:59.589Z,1009.58
2023-09-08T17:33:07.800Z,1009.59
2023-09-08T17:36:14.898Z,1009.55
2023-09-08T17:39:23.142Z,1009.70
2023-09-08T17:42:30.741Z,1009.74
2023-09-08T17:45:37.789Z,1009.72
2023-09-08T17:48:46.431Z,1009.73
2023-09-08T17:51:53.602Z,1009.75
2023-09-08T17:55:01.070Z,1009.69
2023-09-08T17:58:09.786Z,1009.70
2023-09-08T18:01:16.654Z,1009.78
2023-09-08T18:04:24.255Z,1009.78
2023-09-08T18:07:31.146Z,1009.78
2023-09-08T18:10:39.727Z,1009.83
2023-09-08T18:13:46.922Z,1009.85
2023-09-08T18:16:54.696Z,1009.88
2023-09-08T18:20:04.067Z,1009.87
2023-09-08T18:23:11.485Z,1009.86
2023-09-08T18:26:18.677Z,1009.85
2023-09-08T18:29:27.272Z,1009.81
2023-09-08T18:32:34.833Z,1009.85
2023-09-08T18:35:42.254Z,1009.87
2023-09-08T18:38:50.868Z,1009.82
2023-09-08T18:41:58.191Z,1009.84
2023-09-08T18:45:05.747Z,1009.88
2023-09-08T18:48:14.709Z,1009.86
2023-09-08T18:51:21.923Z,1009.84
2023-09-08T18:54:29.794Z,1009.82
2023-09-08T18:57:37.053Z,1009.91
2023-09-08T19:00:46.143Z,1009.93
2023-09-08T19:03:53.132Z,1009.94
2023-09-08T19:07:00.356Z,1010.05
2023-09-08T19:10:09.663Z,1010.08
2023-09-08T19:13:18.063Z,1010.03
2023-09-08T19:16:25.052Z,1010.14
2023-09-08T19:19:34.053Z,1010.11
2023-09-08T19:22:41.654Z,1010.09
2023-09-08T19:25:49.082Z,1010.06
2023-09-08T19:28:58.452Z,1010.04
2023-09-08T19:32:07.575Z,1010.07
2023-09-08T19:35:14.615Z,1010.06
2023-09-08T19:38:21.870Z,1010.05
2023-09-08T19:41:30.624Z,1009.98
2023-09-08T19:44:38.279Z,1009.99
2023-09-08T19:47:46.388Z,1009.96
2023-09-08T19:50:56.293Z,1009.99
2023-09-08T19:54:04.838Z,1009.93
2023-09-08T19:57:11.980Z,1009.94
2023-09-08T20:00:21.665Z,1009.93
2023-09-08T20:03:29.471Z,1009.96
2023-09-08T20:06:39.310Z,1009.96
2023-09-08T20:09:40.955Z,1009.99
2023-09-08T20:12:49.049Z,1010.01
2023-09-08T20:15:56.160Z,1010.03
2023-09-08T20:19:04.691Z,1010.03
2023-09-08T20:22:13.473Z,1009.98
2023-09-08T20:25:20.749Z,1009.93
2023-09-08T20:28:27.636Z,1009.90
2023-09-08T20:31:37.547Z,1009.88
2023-09-08T20:34:44.362Z,1009.85
2023-09-08T20:37:51.845Z,1009.91
2023-09-08T20:41:00.652Z,1009.96
2023-09-08T20:44:08.677Z,1009.97
2023-09-08T20:47:16.147Z,1010.04
2023-09-08T20:50:24.861Z,1010.03
2023-09-08T20:53:33.026Z,1010.07
2023-09-08T20:56:40.355Z,1010.07
2023-09-08T20:59:47.979Z,1009.99
2023-09-08T21:02:56.909Z,1010.04
2023-09-08T21:06:04.273Z,1010.07
2023-09-08T21:09:11.671Z,1010.07
2023-09-08T21:12:20.869Z,1010.04
2023-09-08T21:15:28.259Z,1010.09
2023-09-08T21:18:35.069Z,1010.05
2023-09-08T21:21:44.447Z,1010.05
2023-09-08T21:24:51.821Z,1010.02
2023-09-08T21:27:59.040Z,1009.97
2023-09-08T21:31:07.680Z,1010.07
2023-09-08T21:34:15.382Z,1010.04
2023-09-08T21:37:22.981Z,1010.06
2023-09-08T21:40:32.035Z,1010.10
2023-09-08T21:43:39.893Z,1010.07
2023-09-08T21:46:47.139Z,1010.10
2023-09-08T21:49:54.986Z,1010.11
2023-09-08T21:53:03.732Z,1010.13
2023-09-08T21:56:11.281Z,1010.01
2023-09-08T21:59:19.117Z,1009.98
2023-09-08T22:02:28.147Z,1009.96
2023-09-08T22:05:35.632Z,1009.94
2023-09-08T22:08:43.040Z,1009.94
2023-09-08T22:11:51.725Z,1009.99
2023-09-08T22:14:59.466Z,1009.91
2023-09-08T22:18:06.605Z,1009.95
2023-09-08T22:21:15.345Z,1009.90
2023-09-08T22:24:22.515Z,1009.97
2023-09-08T22:27:30.275Z,1009.95
2023-09-08T22:30:37.033Z,1009.92
2023-09-08T22:33:46.646Z,1009.89
2023-09-08T22:36:53.824Z,1009.81
2023-09-08T22:40:00.980Z,1009.91
2023-09-08T22:43:11.101Z,1009.81
2023-09-08T22:46:18.013Z,1009.83
2023-09-08T22:49:25.824Z,1009.80
2023-09-08T22:52:34.578Z,1009.82
2023-09-08T22:55:41.956Z,1009.75
2023-09-08T22:58:49.562Z,1009.74
2023-09-08T23:01:58.729Z,1009.74
2023-09-08T23:05:05.747Z,1009.76
2023-09-08T23:08:13.049Z,1009.76
2023-09-08T23:11:20.379Z,1009.75
2023-09-08T23:14:29.816Z,1009.79
2023-09-08T23:17:37.631Z,1009.81
2023-09-08T23:20:44.668Z,1009.80
2023-09-08T23:23:53.746Z,1009.73
2023-09-08T23:27:00.512Z,1009.76
2023-09-08T23:30:08.754Z,1009.68
2023-09-08T23:33:17.462Z,1009.69
2023-09-08T23:36:24.605Z,1009.73
2023-09-08T23:39:32.227Z,1009.80
2023-09-08T23:42:41.352Z,1009.77
2023-09-08T23:45:49.219Z,1009.73
2023-09-08T23:48:57.907Z,1009.76
2023-09-08T23:52:05.832Z,1009.68
2023-09-08T23:55:14.613Z,1009.71
2023-09-08T23:58:21.898Z,1009.65
